Time;durP1;ratioP1;P1;durP2;ratioP2;P2;SDS_P1;SDS_P2;PMS_P1;PMS_P2;Temp;Humidity;BMP_temperature;BMP_pressure;BME280_temperature;BME280_humidity;BME280_pressure;Samples;Min_cycle;Max_cycle;Signal;HPM_P1;HPM_P2
2022/03/06 00:02:03;;;;;;;22.67;13.60;;;;;;;-2.30;96.90;93474.47;5022201;28;20048;-76
2022/03/06 00:04:29;;;;;;;21.13;11.27;;;;;;;-2.28;96.57;93475.78;5019056;28;20471;-77
2022/03/06 00:06:54;;;;;;;21.67;13.13;;;;;;;-2.28;96.70;93488.03;5022104;28;20091;-76
2022/03/06 00:09:20;;;;;;;20.85;12.70;;;;;;;-2.33;97.03;93474.94;5025050;28;20093;-77
2022/03/06 00:11:45;;;;;;;23.55;12.02;;;;;;;-2.33;96.88;93461.91;5020056;28;20040;-76
2022/03/06 00:14:11;;;;;;;29.50;14.40;;;;;;;-2.45;96.86;93456.84;5021933;28;20491;-76
2022/03/06 00:16:37;;;;;;;24.50;13.38;;;;;;;-2.24;96.85;93476.09;5029170;28;20303;-76
2022/03/06 00:19:02;;;;;;;21.17;11.63;;;;;;;-2.28;97.30;93493.22;5026243;28;20610;-76
2022/03/06 00:21:30;;;;;;;22.63;13.02;;;;;;;-2.26;97.36;93486.78;5015198;28;20301;-73
2022/03/06 00:23:56;;;;;;;20.75;11.63;;;;;;;-2.27;97.17;93471.38;5041495;28;20102;-76
2022/03/06 00:26:21;;;;;;;22.67;10.48;;;;;;;-2.24;97.58;93491.72;5016849;28;20135;-76
2022/03/06 00:28:46;;;;;;;22.60;12.50;;;;;;;-2.40;97.24;93476.94;5021133;28;20040;-76
2022/03/06 00:31:12;;;;;;;18.35;9.07;;;;;;;-2.22;97.22;93487.06;5021773;28;20103;-75
2022/03/06 00:33:44;;;;;;;17.98;10.13;;;;;;;-2.34;97.20;93489.00;5020154;28;20682;-74
2022/03/06 00:36:09;;;;;;;17.67;10.15;;;;;;;-2.31;97.29;93480.72;5022762;28;20044;-75
2022/03/06 00:38:34;;;;;;;17.67;9.02;;;;;;;-2.33;97.50;93480.16;5023976;28;20040;-76
2022/03/06 00:41:00;;;;;;;18.27;10.18;;;;;;;-2.45;97.41;93456.84;5025834;28;20037;-76
2022/03/06 00:43:25;;;;;;;17.45;9.52;;;;;;;-2.23;97.36;93477.66;5016024;28;20024;-76
2022/03/06 00:45:51;;;;;;;15.18;8.93;;;;;;;-2.26;97.21;93476.34;5013030;28;20038;-77
2022/03/06 00:48:16;;;;;;;14.98;8.80;;;;;;;-2.30;97.37;93464.06;5025853;28;20463;-77
2022/03/06 00:50:42;;;;;;;17.27;10.15;;;;;;;-2.49;97.19;93439.34;5023191;28;20051;-77
2022/03/06 00:53:08;;;;;;;17.42;9.68;;;;;;;-2.35;97.29;93466.59;5025582;28;20029;-76
2022/03/06 00:55:33;;;;;;;15.27;9.35;;;;;;;-2.44;97.20;93429.78;5020540;28;20049;-76
2022/03/06 00:58:05;;;;;;;16.50;9.23;;;;;;;-2.43;97.09;93420.91;5022850;28;20037;-75
2022/03/06 01:00:35;;;;;;;13.02;7.93;;;;;;;-2.20;96.82;93448.56;5022032;28;20064;-78
2022/03/06 01:03:03;;;;;;;13.35;7.95;;;;;;;-2.22;96.74;93452.41;5034938;28;20423;-77
2022/03/06 01:05:28;;;;;;;23.23;9.23;;;;;;;-2.44;96.74;93421.16;5024087;28;20056;-76
2022/03/06 01:07:54;;;;;;;13.38;8.02;;;;;;;-2.27;96.87;93445.31;5017748;28;20025;-71
2022/03/06 01:10:19;;;;;;;15.15;9.15;;;;;;;-2.25;96.93;93445.88;5020967;28;20579;-71
2022/03/06 01:12:45;;;;;;;19.92;11.02;;;;;;;-2.35;97.07;93445.75;5026197;28;20123;-73
2022/03/06 01:15:10;;;;;;;21.63;11.85;;;;;;;-2.30;97.30;93440.63;5019227;28;20037;-72
2022/03/06 01:17:35;;;;;;;21.92;9.90;;;;;;;-2.32;97.15;93445.25;5024463;28;20063;-71
2022/03/06 01:20:01;;;;;;;19.83;11.27;;;;;;;-2.55;97.34;93414.25;5016006;28;20864;-70
2022/03/06 01:22:26;;;;;;;15.35;8.98;;;;;;;-2.40;97.18;93411.84;5024405;28;20112;-71
2022/03/06 01:24:52;;;;;;;16.05;10.13;;;;;;;-2.35;96.92;93417.09;5019299;28;20068;-71
2022/03/06 01:27:17;;;;;;;19.70;9.80;;;;;;;-2.12;96.79;93437.69;5023113;28;20423;-72
2022/03/06 01:29:44;;;;;;;19.90;9.77;;;;;;;-2.33;96.68;93412.44;5018991;28;20112;-71
2022/03/06 01:32:10;;;;;;;21.30;10.80;;;;;;;-2.39;96.76;93423.84;5020045;28;20112;-71
2022/03/06 01:34:35;;;;;;;16.10;8.88;;;;;;;-2.36;96.84;93418.13;5018417;28;20040;-71
2022/03/06 01:37:00;;;;;;;20.00;10.77;;;;;;;-2.34;96.69;93436.94;5016914;28;20140;-72
2022/03/06 01:39:26;;;;;;;22.65;10.65;;;;;;;-2.32;96.73;93432.25;5023536;28;20051;-77
2022/03/06 01:41:51;;;;;;;20.73;9.32;;;;;;;-2.25;96.79;93438.06;5018823;28;20520;-77
2022/03/06 01:44:17;;;;;;;23.05;11.30;;;;;;;-2.37;96.70;93419.16;5023761;28;20032;-76
2022/03/06 01:46:46;;;;;;;22.27;10.43;;;;;;;-2.33;96.59;93417.63;5027705;28;20476;-74
2022/03/06 01:49:11;;;;;;;24.58;9.90;;;;;;;-2.16;96.64;93425.41;5017567;28;20044;-73
2022/03/06 01:51:37;;;;;;;19.52;9.95;;;;;;;-2.20;96.28;93421.72;5037157;28;20041;-74
2022/03/06 01:54:03;;;;;;;26.90;13.70;;;;;;;-2.27;96.34;93422.66;5024894;28;20044;-74
2022/03/06 01:56:28;;;;;;;18.98;9.95;;;;;;;-2.24;96.25;93420.63;5022875;28;20036;-75
2022/03/06 01:58:55;;;;;;;23.65;11.48;;;;;;;-2.27;95.90;93419.28;5019447;28;20055;-76
2022/03/06 02:01:21;;;;;;;25.73;13.30;;;;;;;-2.33;96.31;93415.03;5020640;28;20032;-76
2022/03/06 02:03:46;;;;;;;21.17;10.45;;;;;;;-2.41;96.41;93392.81;5016995;28;20040;-76
2022/03/06 02:06:11;;;;;;;32.67;14.23;;;;;;;-2.29;96.25;93413.53;5018695;28;20032;-75
2022/03/06 02:08:37;;;;;;;20.58;10.32;;;;;;;-2.26;96.23;93407.84;5021955;28;20287;-76
2022/03/06 02:11:04;;;;;;;21.75;11.93;;;;;;;-2.29;95.95;93392.72;5023713;28;20075;-77
2022/03/06 02:13:30;;;;;;;19.02;10.43;;;;;;;-2.11;95.95;93410.59;5017839;28;20094;-77
2022/03/06 02:15:56;;;;;;;26.80;12.88;;;;;;;-2.26;95.60;93384.38;5023766;28;20128;-74
2022/03/06 02:18:21;;;;;;;21.58;11.63;;;;;;;-2.12;95.21;93405.63;5020624;28;20034;-75
2022/03/06 02:20:47;;;;;;;18.50;11.75;;;;;;;-2.01;94.57;93415.94;5026536;28;20118;-74
2022/03/06 02:23:13;;;;;;;21.33;11.48;;;;;;;-1.99;93.52;93400.81;5025152;28;20025;-76
2022/03/06 02:25:38;;;;;;;17.45;8.68;;;;;;;-1.93;92.94;93394.63;5027839;28;20116;-77
2022/03/06 02:28:06;;;;;;;22.90;11.13;;;;;;;-1.95;92.01;93388.09;5029278;28;20403;-77
2022/03/06 02:30:35;;;;;;;16.52;8.10;;;;;;;-1.66;91.74;93388.63;5030480;28;20124;-76
2022/03/06 02:33:03;;;;;;;15.48;10.13;;;;;;;-1.94;91.18;93364.38;5024252;28;20690;-76
2022/03/06 02:35:29;;;;;;;15.52;9.35;;;;;;;-1.90;90.89;93360.25;5021580;28;20039;-77
2022/03/06 02:37:54;;;;;;;13.68;8.00;;;;;;;-1.69;90.84;93394.31;5025823;28;20816;-76
2022/03/06 02:40:21;;;;;;;14.57;8.82;;;;;;;-1.92;90.85;93372.75;5023704;28;20033;-75
2022/03/06 02:42:49;;;;;;;15.45;8.98;;;;;;;-1.74;90.93;93410.72;5032145;28;20530;-76
2022/03/06 02:45:21;;;;;;;17.15;11.45;;;;;;;-1.80;91.00;93408.31;5015636;28;20193;-73
2022/03/06 02:47:47;;;;;;;14.43;9.52;;;;;;;-1.94;91.08;93389.66;5028345;28;20048;-74
2022/03/06 02:50:16;;;;;;;16.23;9.93;;;;;;;-1.96;91.33;93395.13;5027558;28;20025;-75
2022/03/06 02:52:43;;;;;;;14.25;8.82;;;;;;;-2.04;91.21;93382.53;5038090;28;20554;-74
2022/03/06 02:55:10;;;;;;;12.18;8.45;;;;;;;-1.89;91.83;93411.34;5033082;28;20037;-75
2022/03/06 02:57:35;;;;;;;13.73;8.45;;;;;;;-2.07;92.08;93382.25;5018741;28;20037;-74
2022/03/06 03:00:02;;;;;;;8.70;6.88;;;;;;;-1.90;92.24;93407.16;5025221;28;20041;-75
2022/03/06 03:02:28;;;;;;;9.13;6.47;;;;;;;-1.89;92.49;93408.75;5029491;28;20643;-76
2022/03/06 03:04:53;;;;;;;9.70;6.80;;;;;;;-1.85;92.18;93415.03;5026703;28;20029;-76
2022/03/06 03:07:19;;;;;;;8.63;6.30;;;;;;;-1.89;92.11;93406.13;5033821;28;20037;-76
2022/03/06 03:09:44;;;;;;;10.75;6.53;;;;;;;-1.92;92.23;93411.06;5026846;28;20033;-74
2022/03/06 03:12:10;;;;;;;11.00;7.75;;;;;;;-1.93;91.73;93415.47;5024173;28;20548;-76
2022/03/06 03:14:36;;;;;;;11.55;7.50;;;;;;;-2.36;92.03;93372.03;5024946;28;20519;-72
2022/03/06 03:17:03;;;;;;;6.90;6.20;;;;;;;-1.95;92.15;93414.94;5024745;28;20091;-76
2022/03/06 03:19:29;;;;;;;7.25;6.00;;;;;;;-1.88;92.34;93423.34;5026873;28;20029;-77
2022/03/06 03:21:55;;;;;;;8.43;6.07;;;;;;;-1.88;92.38;93427.78;5024192;28;20142;-74
2022/03/06 03:24:21;;;;;;;14.88;7.20;;;;;;;-2.00;92.85;93427.16;5017956;28;20121;-77
2022/03/06 03:26:47;;;;;;;10.25;7.00;;;;;;;-2.21;93.10;93404.50;5024099;28;20041;-76
2022/03/06 03:29:12;;;;;;;11.98;7.50;;;;;;;-2.20;93.40;93400.88;5025765;28;20025;-76
2022/03/06 03:31:38;;;;;;;11.60;6.97;;;;;;;-2.06;93.67;93428.91;5024707;28;20124;-74
2022/03/06 03:34:04;;;;;;;9.73;6.55;;;;;;;-2.16;94.11;93418.38;5027381;28;20068;-74
2022/03/06 03:36:30;;;;;;;9.82;7.15;;;;;;;-2.12;94.47;93429.88;5024728;28;20053;-75
2022/03/06 03:38:56;;;;;;;13.10;7.10;;;;;;;-2.34;95.16;93395.25;5021989;28;20156;-74
2022/03/06 03:41:25;;;;;;;12.15;7.95;;;;;;;-2.36;95.58;93405.09;5023634;28;20488;-71
2022/03/06 03:43:51;;;;;;;9.52;6.88;;;;;;;-2.21;96.29;93436.56;5030252;28;20876;-72
2022/03/06 03:46:18;;;;;;;13.48;7.45;;;;;;;-2.32;96.08;93409.59;5020447;28;20125;-74
2022/03/06 03:48:44;;;;;;;12.65;7.50;;;;;;;-2.32;96.33;93416.63;5028831;28;20079;-75
2022/03/06 03:51:10;;;;;;;11.93;6.72;;;;;;;-2.23;96.52;93422.97;5031582;28;20152;-76
2022/03/06 03:53:35;;;;;;;10.98;7.30;;;;;;;-2.24;96.29;93428.44;5022057;28;20114;-77
2022/03/06 03:56:01;;;;;;;11.85;7.07;;;;;;;-2.20;96.09;93440.72;5025346;28;20052;-77
2022/03/06 03:58:26;;;;;;;6.95;5.88;;;;;;;-2.40;95.34;93406.63;5012548;28;20031;-77
2022/03/06 04:00:54;;;;;;;8.00;5.00;;;;;;;-2.26;95.41;93439.09;5035954;28;20028;-77
2022/03/06 04:03:20;;;;;;;7.57;5.55;;;;;;;-2.27;95.28;93427.09;5022029;28;20037;-76
2022/03/06 04:05:46;;;;;;;9.88;5.30;;;;;;;-2.39;95.44;93418.63;5021027;28;20442;-76
2022/03/06 04:08:11;;;;;;;7.65;6.88;;;;;;;-2.39;94.70;93427.19;5023632;28;20081;-74
2022/03/06 04:10:37;;;;;;;6.13;4.90;;;;;;;-2.47;94.84;93406.00;5024405;28;20021;-76
2022/03/06 04:13:03;;;;;;;5.80;5.25;;;;;;;-2.22;94.54;93439.38;5016917;28;20064;-74
2022/03/06 04:15:28;;;;;;;7.65;5.05;;;;;;;-2.43;94.31;93404.50;5026788;28;20041;-76
2022/03/06 04:17:53;;;;;;;5.55;3.97;;;;;;;-2.16;94.25;93438.44;5025550;28;20395;-77
2022/03/06 04:20:19;;;;;;;8.90;5.57;;;;;;;-2.38;94.13;93425.38;5011772;28;20590;-76
2022/03/06 04:22:44;;;;;;;5.35;4.35;;;;;;;-2.33;94.00;93412.44;5019571;28;20033;-73
2022/03/06 04:25:10;;;;;;;5.85;5.28;;;;;;;-2.26;93.94;93431.28;5011897;28;20509;-76
2022/03/06 04:27:35;;;;;;;8.50;5.75;;;;;;;-2.55;93.84;93403.84;5034332;28;20514;-76
2022/03/06 04:30:01;;;;;;;7.38;5.25;;;;;;;-2.48;93.91;93413.03;5017071;28;20047;-75
2022/03/06 04:32:26;;;;;;;5.72;4.30;;;;;;;-2.53;93.87;93412.19;5020253;28;20069;-76
2022/03/06 04:34:51;;;;;;;8.05;6.40;;;;;;;-2.57;93.71;93405.88;5021961;28;20097;-77
2022/03/06 04:37:17;;;;;;;7.95;5.68;;;;;;;-2.68;94.30;93383.38;5017523;28;20657;-77
2022/03/06 04:39:42;;;;;;;7.05;5.40;;;;;;;-2.53;94.44;93401.75;5019630;28;20042;-77
2022/03/06 04:42:08;;;;;;;6.40;4.38;;;;;;;-2.28;93.38;93428.13;5014756;28;20147;-78
2022/03/06 04:44:33;;;;;;;6.28;4.75;;;;;;;-2.32;92.85;93412.19;5024108;28;20033;-76
2022/03/06 04:46:59;;;;;;;7.63;5.60;;;;;;;-2.35;92.12;93419.72;5021539;28;20036;-75
2022/03/06 04:49:24;;;;;;;6.15;4.18;;;;;;;-2.36;92.17;93433.75;5023202;28;20488;-76
2022/03/06 04:51:51;;;;;;;6.30;4.20;;;;;;;-2.86;91.85;93346.19;5022266;28;20049;-75
2022/03/06 04:54:16;;;;;;;7.07;4.65;;;;;;;-2.30;91.87;93427.59;5032376;28;20033;-77
2022/03/06 04:56:42;;;;;;;7.30;4.50;;;;;;;-2.43;91.97;93428.72;5018022;28;20106;-77
2022/03/06 04:59:07;;;;;;;5.18;4.28;;;;;;;-2.43;92.33;93422.72;5019834;28;20443;-76
2022/03/06 05:01:33;;;;;;;5.55;4.03;;;;;;;-2.58;92.48;93397.28;5027893;28;20525;-76
2022/03/06 05:04:00;;;;;;;6.30;3.92;;;;;;;-2.60;92.79;93395.97;5020929;28;20037;-76
2022/03/06 05:06:30;;;;;;;4.57;3.83;;;;;;;-2.58;92.85;93431.13;5017768;28;20599;-73
2022/03/06 05:08:56;;;;;;;5.38;4.53;;;;;;;-2.65;93.44;93440.16;5024378;28;20080;-72
2022/03/06 05:11:22;;;;;;;4.88;3.35;;;;;;;-2.63;93.49;93407.63;5023395;28;20488;-72
2022/03/06 05:13:48;;;;;;;4.53;3.63;;;;;;;-2.57;93.46;93439.72;5018151;28;20026;-72
2022/03/06 05:16:13;;;;;;;5.63;4.25;;;;;;;-2.70;93.51;93431.25;5031441;28;20034;-70
2022/03/06 05:18:39;;;;;;;6.15;3.67;;;;;;;-2.61;93.66;93442.03;5022789;28;20037;-71
2022/03/06 05:21:05;;;;;;;6.47;4.10;;;;;;;-2.55;93.60;93435.09;5024219;28;20041;-74
2022/03/06 05:23:30;;;;;;;5.35;4.75;;;;;;;-2.65;92.86;93422.72;5029812;28;20470;-71
2022/03/06 05:25:57;;;;;;;4.85;3.75;;;;;;;-2.38;92.00;93435.81;5025614;28;20126;-73
2022/03/06 05:28:23;;;;;;;6.20;4.55;;;;;;;-2.53;91.56;93423.38;5020095;28;20037;-70
2022/03/06 05:30:49;;;;;;;5.93;3.95;;;;;;;-2.50;91.41;93422.91;5029899;28;20045;-71
2022/03/06 05:33:15;;;;;;;4.10;3.13;;;;;;;-2.63;91.14;93396.47;5019468;28;20033;-73
2022/03/06 05:35:40;;;;;;;4.78;3.08;;;;;;;-2.51;90.48;93408.31;5032847;28;20834;-76
2022/03/06 05:38:06;;;;;;;5.60;4.20;;;;;;;-2.52;89.96;93442.41;5036354;28;20089;-75
2022/03/06 05:40:31;;;;;;;5.05;4.40;;;;;;;-2.45;90.20;93440.44;5019367;28;20082;-77
2022/03/06 05:42:57;;;;;;;4.93;4.03;;;;;;;-2.52;90.08;93445.00;5021103;28;20060;-77
2022/03/06 05:45:22;;;;;;;5.97;3.95;;;;;;;-2.48;90.06;93446.09;5015727;28;20404;-77
2022/03/06 05:47:48;;;;;;;6.45;4.95;;;;;;;-2.36;89.48;93441.56;5037636;28;20061;-76
2022/03/06 05:50:13;;;;;;;6.32;4.00;;;;;;;-2.45;88.65;93417.00;5023743;28;20037;-72
2022/03/06 05:52:39;;;;;;;6.65;4.15;;;;;;;-2.44;88.48;93434.97;5023464;28;20064;-76
2022/03/06 05:55:08;;;;;;;7.72;4.35;;;;;;;-2.40;89.24;93445.69;5029847;28;20040;-74
2022/03/06 05:57:37;;;;;;;4.93;4.15;;;;;;;-2.39;88.96;93429.81;5042332;28;20033;-77
2022/03/06 06:00:08;;;;;;;6.93;4.32;;;;;;;-2.43;88.97;93438.34;5015931;28;20695;-76
2022/03/06 06:02:37;;;;;;;4.10;3.35;;;;;;;-2.27;89.26;93443.50;5022998;28;20502;-72
2022/03/06 06:05:10;;;;;;;4.68;3.33;;;;;;;-2.36;88.41;93441.56;5025005;28;20518;-71
2022/03/06 06:07:36;;;;;;;7.13;4.10;;;;;;;-2.64;87.41;93410.50;5035635;28;20028;-71
2022/03/06 06:10:05;;;;;;;6.90;3.55;;;;;;;-2.28;87.47;93451.56;5024187;28;20045;-71
2022/03/06 06:12:31;;;;;;;3.95;2.65;;;;;;;-2.28;86.95;93454.16;5029897;28;20037;-71
2022/03/06 06:15:02;;;;;;;5.68;4.10;;;;;;;-2.42;86.36;93451.13;5025091;28;20474;-74
2022/03/06 06:17:27;;;;;;;3.75;3.25;;;;;;;-2.29;86.13;93452.63;5028327;28;20106;-74
2022/03/06 06:19:53;;;;;;;6.13;3.70;;;;;;;-2.21;85.78;93452.19;5039880;28;20037;-71
2022/03/06 06:22:18;;;;;;;4.22;3.58;;;;;;;-2.25;85.60;93453.69;5026983;28;20036;-74
2022/03/06 06:24:44;;;;;;;4.97;4.43;;;;;;;-2.25;86.05;93451.09;5035209;28;20125;-77
2022/03/06 06:27:10;;;;;;;4.05;3.65;;;;;;;-2.48;86.54;93452.09;5038381;28;20128;-77
2022/03/06 06:29:36;;;;;;;3.45;3.00;;;;;;;-2.30;86.95;93471.88;5026904;28;20504;-76
2022/03/06 06:32:04;;;;;;;3.10;2.75;;;;;;;-2.35;87.23;93467.38;5033572;28;20044;-74
2022/03/06 06:34:30;;;;;;;3.15;2.70;;;;;;;-2.41;87.78;93463.13;5028816;28;20105;-77
2022/03/06 06:36:57;;;;;;;2.97;2.15;;;;;;;-2.48;87.75;93451.31;5025335;28;20098;-77
2022/03/06 06:39:25;;;;;;;5.25;3.80;;;;;;;-2.39;87.51;93465.50;5025833;28;20064;-76
2022/03/06 06:41:51;;;;;;;4.85;3.08;;;;;;;-2.51;88.46;93457.78;5026872;28;20037;-77
2022/03/06 06:44:16;;;;;;;4.28;3.45;;;;;;;-2.58;88.91;93477.22;5025053;28;20102;-76
2022/03/06 06:46:45;;;;;;;4.80;3.20;;;;;;;-2.53;88.46;93464.25;5028813;28;20049;-77
2022/03/06 06:49:10;;;;;;;2.92;2.60;;;;;;;-2.42;87.66;93476.38;5026861;28;20045;-77
2022/03/06 06:51:38;;;;;;;3.65;3.30;;;;;;;-2.33;87.75;93482.75;5034144;28;20040;-76
2022/03/06 06:54:04;;;;;;;3.42;3.13;;;;;;;-2.45;87.16;93461.25;5026406;28;20083;-74
2022/03/06 06:56:29;;;;;;;4.97;3.50;;;;;;;-2.44;87.21;93470.66;5024762;28;20480;-75
2022/03/06 06:58:55;;;;;;;7.05;3.58;;;;;;;-2.38;87.03;93491.28;5025579;28;20037;-74
2022/03/06 07:01:20;;;;;;;2.83;2.45;;;;;;;-2.32;87.60;93486.94;5028304;28;20032;-74
2022/03/06 07:03:46;;;;;;;7.75;4.00;;;;;;;-2.39;87.38;93486.34;5026339;28;20050;-73
2022/03/06 07:06:12;;;;;;;4.30;3.60;;;;;;;-2.47;87.84;93482.31;5026026;28;20036;-74
2022/03/06 07:08:37;;;;;;;3.65;3.13;;;;;;;-2.77;87.75;93443.63;5026444;28;20037;-74
2022/03/06 07:11:03;;;;;;;4.45;3.10;;;;;;;-2.49;87.09;93492.22;5021991;28;20113;-75
2022/03/06 07:13:28;;;;;;;3.78;2.78;;;;;;;-2.55;86.98;93461.13;5033250;28;20059;-75
2022/03/06 07:15:53;;;;;;;7.38;3.60;;;;;;;-2.47;86.19;93471.13;5024607;28;20041;-75
2022/03/06 07:18:19;;;;;;;4.30;3.90;;;;;;;-2.43;85.58;93470.38;5020664;28;20444;-75
2022/03/06 07:20:45;;;;;;;2.80;2.55;;;;;;;-2.27;84.93;93479.19;5030927;28;20037;-77
2022/03/06 07:23:12;;;;;;;4.72;3.00;;;;;;;-2.23;84.58;93464.66;5026429;28;20033;-76
2022/03/06 07:25:37;;;;;;;3.22;2.90;;;;;;;-2.26;84.58;93455.50;5030137;28;20023;-75
2022/03/06 07:28:03;;;;;;;3.53;3.10;;;;;;;-2.38;84.52;93451.44;5025770;28;20033;-75
2022/03/06 07:30:29;;;;;;;3.45;2.33;;;;;;;-2.27;84.09;93464.34;5027402;28;20163;-76
2022/03/06 07:32:54;;;;;;;2.80;2.60;;;;;;;-2.18;83.82;93474.34;5023175;28;20357;-73
2022/03/06 07:35:21;;;;;;;2.65;2.45;;;;;;;-2.18;82.78;93467.31;5017039;28;20891;-73
2022/03/06 07:37:47;;;;;;;2.92;2.72;;;;;;;-2.06;83.25;93485.44;5027409;28;20056;-76
2022/03/06 07:40:15;;;;;;;3.30;2.90;;;;;;;-2.41;83.11;93441.50;5019304;28;20487;-76
2022/03/06 07:42:40;;;;;;;2.85;2.65;;;;;;;-2.25;83.48;93482.34;5021748;28;20450;-76
2022/03/06 07:45:07;;;;;;;2.65;2.50;;;;;;;-2.38;83.58;93493.91;5023022;28;20045;-73
2022/03/06 07:47:32;;;;;;;2.53;2.33;;;;;;;-2.48;84.14;93466.94;5022019;28;20054;-75
2022/03/06 07:49:58;;;;;;;2.45;2.17;;;;;;;-2.45;83.87;93480.28;5025259;28;20044;-77
2022/03/06 07:52:29;;;;;;;3.40;2.50;;;;;;;-2.14;83.23;93510.09;5023658;28;20137;-76
2022/03/06 07:54:54;;;;;;;3.03;2.72;;;;;;;-2.30;83.29;93484.91;5027261;28;20044;-77
2022/03/06 07:57:20;;;;;;;3.28;2.33;;;;;;;-2.21;83.79;93499.06;5024289;28;20030;-77
2022/03/06 07:59:45;;;;;;;3.20;2.90;;;;;;;-2.23;83.67;93497.72;5017314;28;20555;-77
2022/03/06 08:02:11;;;;;;;2.60;2.40;;;;;;;-1.97;83.47;93500.41;5023466;28;20059;-76
2022/03/06 08:04:36;;;;;;;3.13;2.28;;;;;;;-2.09;83.31;93491.91;5016764;28;20029;-77
2022/03/06 08:07:05;;;;;;;2.67;2.47;;;;;;;-2.06;83.29;93486.22;5022502;28;20142;-76
2022/03/06 08:09:30;;;;;;;2.92;2.72;;;;;;;-2.01;83.47;93482.91;5026283;28;20124;-78
2022/03/06 08:11:56;;;;;;;2.33;2.20;;;;;;;-2.15;83.55;93495.50;5038894;28;20063;-76
2022/03/06 08:14:21;;;;;;;2.95;2.53;;;;;;;-2.06;84.11;93508.91;5023606;28;20149;-77
2022/03/06 08:16:46;;;;;;;3.85;2.65;;;;;;;-2.07;83.11;93515.91;5025934;28;20025;-76
2022/03/06 08:19:12;;;;;;;2.28;2.17;;;;;;;-2.10;82.65;93520.84;5026101;28;20598;-75
2022/03/06 08:21:39;;;;;;;4.25;2.28;;;;;;;-2.06;82.41;93501.06;5023443;28;20086;-76
2022/03/06 08:24:05;;;;;;;4.00;2.40;;;;;;;-2.02;82.54;93518.59;5024748;28;20048;-77
2022/03/06 08:26:30;;;;;;;2.92;2.70;;;;;;;-2.01;82.31;93517.56;5022951;28;20037;-73
2022/03/06 08:28:55;;;;;;;2.80;2.60;;;;;;;-1.88;82.47;93511.97;5030151;28;20044;-76
2022/03/06 08:31:30;;;;;;;2.72;2.50;;;;;;;-1.94;83.13;93506.94;5028637;28;20037;-73
2022/03/06 08:33:55;;;;;;;3.60;2.95;;;;;;;-2.09;82.63;93498.94;5017557;28;20044;-73
2022/03/06 08:36:20;;;;;;;4.80;2.92;;;;;;;-2.31;82.94;93476.28;5017627;28;20182;-76
2022/03/06 08:38:46;;;;;;;3.00;2.70;;;;;;;-2.17;82.86;93468.91;5013976;28;20463;-75
2022/03/06 08:41:12;;;;;;;3.47;2.83;;;;;;;-2.37;83.54;93474.63;5019100;28;20059;-72
2022/03/06 08:43:37;;;;;;;3.95;3.17;;;;;;;-2.30;84.27;93484.91;5021440;28;20029;-76
2022/03/06 08:46:03;;;;;;;3.85;3.20;;;;;;;-2.17;85.99;93487.13;5022729;28;20041;-76
2022/03/06 08:48:30;;;;;;;6.72;3.60;;;;;;;-2.29;86.95;93460.44;5019958;28;20132;-77
2022/03/06 08:50:55;;;;;;;3.30;3.00;;;;;;;-2.26;87.80;93496.41;5023145;28;20333;-77
2022/03/06 08:53:21;;;;;;;5.03;3.28;;;;;;;-2.31;88.88;93489.31;5028493;28;20422;-75
2022/03/06 08:55:46;;;;;;;4.80;4.15;;;;;;;-2.27;89.40;93490.41;5023530;28;20479;-76
2022/03/06 08:58:12;;;;;;;6.40;3.65;;;;;;;-2.50;89.75;93458.59;5014349;28;20123;-76
2022/03/06 09:00:37;;;;;;;5.13;4.00;;;;;;;-2.25;89.83;93490.16;5013366;28;20472;-75
2022/03/06 09:03:03;;;;;;;6.00;4.35;;;;;;;-2.00;89.92;93480.06;5019510;28;20044;-75
2022/03/06 09:05:28;;;;;;;5.03;4.25;;;;;;;-2.02;89.57;93461.25;5016707;28;20102;-76
2022/03/06 09:07:56;;;;;;;5.82;4.55;;;;;;;-1.74;89.24;93464.66;5020725;28;20025;-75
2022/03/06 09:10:22;;;;;;;6.85;4.25;;;;;;;-1.58;87.84;93442.94;5022858;28;20056;-75
2022/03/06 09:12:47;;;;;;;5.55;4.00;;;;;;;-1.47;86.54;93444.63;5019810;28;20773;-75
2022/03/06 09:15:13;;;;;;;3.00;2.72;;;;;;;-1.41;84.56;93469.72;5033916;28;20076;-74
2022/03/06 09:17:39;;;;;;;3.63;3.33;;;;;;;-1.56;84.07;93457.31;5024983;28;20828;-76
2022/03/06 09:20:05;;;;;;;2.95;2.53;;;;;;;-1.34;83.57;93474.72;5018392;28;20031;-73
2022/03/06 09:22:31;;;;;;;4.53;3.05;;;;;;;-1.33;82.10;93468.47;5023266;28;20176;-75
2022/03/06 09:24:56;;;;;;;3.35;2.75;;;;;;;-1.16;81.25;93469.91;5025805;28;20379;-76
2022/03/06 09:27:22;;;;;;;3.35;3.08;;;;;;;-1.22;80.07;93481.38;5025398;28;20033;-75
2022/03/06 09:29:47;;;;;;;2.63;2.40;;;;;;;-1.19;80.06;93491.28;5022564;28;20044;-78
2022/03/06 09:32:13;;;;;;;3.40;2.25;;;;;;;-1.40;79.38;93473.88;5025970;28;20571;-78
2022/03/06 09:34:38;;;;;;;2.72;2.38;;;;;;;-1.31;79.74;93485.44;5029724;28;20075;-77
2022/03/06 09:37:04;;;;;;;4.20;2.33;;;;;;;-1.22;80.06;93497.03;5016630;28;20036;-77
2022/03/06 09:39:29;;;;;;;4.75;2.80;;;;;;;-1.35;79.85;93473.94;5027111;28;20091;-75
2022/03/06 09:41:56;;;;;;;4.18;2.60;;;;;;;-1.14;80.33;93480.91;5024752;28;20500;-77
2022/03/06 09:44:25;;;;;;;3.75;2.65;;;;;;;-1.43;80.38;93469.94;5026115;28;20800;-78
2022/03/06 09:46:55;;;;;;;3.97;2.78;;;;;;;-1.51;81.10;93453.97;5025834;28;20625;-77
2022/03/06 09:49:20;;;;;;;2.78;2.53;;;;;;;-1.18;81.35;93487.66;5021067;28;20088;-77
2022/03/06 09:51:46;;;;;;;4.03;3.17;;;;;;;-1.36;80.84;93480.16;5023972;28;20755;-75
2022/03/06 09:54:12;;;;;;;3.90;3.28;;;;;;;-1.43;81.35;93479.59;5021443;28;20037;-74
2022/03/06 09:56:39;;;;;;;8.50;4.00;;;;;;;-1.56;81.28;93480.78;5022079;28;20525;-78
2022/03/06 09:59:05;;;;;;;8.75;4.20;;;;;;;-1.42;80.91;93489.78;5018032;28;20034;-76
2022/03/06 10:01:32;;;;;;;12.02;4.60;;;;;;;-1.40;81.21;93505.97;5020877;28;20033;-75
2022/03/06 10:03:58;;;;;;;7.13;5.10;;;;;;;-1.50;82.22;93499.84;5024719;28;20428;-76
2022/03/06 10:06:23;;;;;;;8.90;5.70;;;;;;;-1.75;83.63;93463.13;5021372;28;20033;-76
2022/03/06 10:09:11;;;;;;;11.35;5.28;;;;;;;-1.59;84.43;93496.13;5020222;28;20040;-75
2022/03/06 10:11:38;;;;;;;11.65;4.97;;;;;;;-1.85;85.02;93469.78;5024404;28;20068;-75
2022/03/06 10:14:04;;;;;;;11.93;5.82;;;;;;;-1.87;84.97;93453.59;5028305;28;20072;-78
2022/03/06 10:16:30;;;;;;;12.93;6.25;;;;;;;-1.79;85.10;93475.84;5020740;28;20108;-78
2022/03/06 10:18:56;;;;;;;6.70;4.93;;;;;;;-1.70;85.27;93499.69;5032780;28;20399;-76
2022/03/06 10:21:24;;;;;;;4.95;4.05;;;;;;;-1.72;85.04;93506.94;5023011;28;20132;-76
2022/03/06 10:24:06;;;;;;;7.10;5.32;;;;;;;-1.87;85.02;93497.13;5022335;28;20091;-78
2022/03/06 10:26:36;;;;;;;7.28;4.75;;;;;;;-1.94;84.40;93501.72;5039676;28;20164;-77
2022/03/06 10:29:03;;;;;;;27.40;18.65;;;;;;;-1.96;84.64;93502.00;5016365;28;20033;-75
2022/03/06 10:31:36;;;;;;;8.60;5.45;;;;;;;-2.41;84.54;93441.50;5022896;28;20033;-75
2022/03/06 10:34:14;;;;;;;9.18;5.25;;;;;;;-1.95;83.86;93500.19;5024579;28;20037;-77
2022/03/06 10:36:43;;;;;;;7.50;5.07;;;;;;;-2.01;84.55;93496.72;5021389;28;20033;-76
2022/03/06 10:39:14;;;;;;;5.40;4.13;;;;;;;-2.39;84.45;93429.03;5025352;28;20067;-77
2022/03/06 10:41:42;;;;;;;6.28;5.07;;;;;;;-1.94;84.75;93499.13;5019842;28;20033;-77
2022/03/06 10:44:10;;;;;;;7.95;4.93;;;;;;;-2.23;84.87;93453.44;5014830;28;20582;-76
2022/03/06 10:46:36;;;;;;;9.00;4.82;;;;;;;-2.00;84.69;93492.28;5024447;28;20025;-78
2022/03/06 10:49:13;;;;;;;6.43;4.30;;;;;;;-1.91;84.53;93478.59;5020116;28;20048;-78
2022/03/06 10:51:42;;;;;;;8.13;5.35;;;;;;;-1.83;83.53;93479.97;5033087;28;20439;-77
2022/03/06 10:54:08;;;;;;;6.40;4.18;;;;;;;-1.95;83.56;93464.44;5017398;28;20040;-74
2022/03/06 10:56:33;;;;;;;6.40;4.97;;;;;;;-2.05;83.85;93456.53;5016640;28;20595;-73
2022/03/06 10:59:01;;;;;;;6.05;4.05;;;;;;;-1.98;83.87;93480.59;5020408;28;20052;-74
2022/03/06 11:01:28;;;;;;;3.60;3.22;;;;;;;-2.07;83.79;93479.44;5024806;28;20020;-74
2022/03/06 11:03:56;;;;;;;5.72;3.50;;;;;;;-2.08;84.84;93477.06;5019512;28;20037;-72
2022/03/06 11:06:22;;;;;;;5.13;3.63;;;;;;;-2.10;85.61;93482.53;5017600;28;20604;-72
2022/03/06 11:08:48;;;;;;;6.00;4.97;;;;;;;-2.12;86.19;93470.78;5022405;28;20064;-73
2022/03/06 11:11:14;;;;;;;5.90;4.18;;;;;;;-2.27;86.40;93455.75;5021803;28;20041;-75
2022/03/06 11:13:40;;;;;;;7.70;4.95;;;;;;;-2.21;86.95;93488.66;5020265;28;20037;-72
2022/03/06 11:16:05;;;;;;;6.38;4.53;;;;;;;-2.22;86.93;93470.66;5024777;28;20041;-77
2022/03/06 11:18:32;;;;;;;4.28;3.67;;;;;;;-2.23;87.04;93469.84;5019587;28;20486;-77
2022/03/06 11:21:01;;;;;;;9.13;4.25;;;;;;;-2.09;86.76;93478.88;5021054;28;20061;-76
2022/03/06 11:23:29;;;;;;;7.10;4.57;;;;;;;-2.07;86.76;93497.69;5020159;28;20462;-78
2022/03/06 11:26:13;;;;;;;5.35;4.30;;;;;;;-2.24;87.01;93502.13;5017817;28;20099;-76